Portada
METAR-TAF:

METAR-TAF

Aeroports :

Cobija, Bolívia

latitud: 11-02S, longitud: 068-47W, altitud: 235 m

Observació

L'informe es va fer fa 14 hores i 32 minuts, a les 20:00 UTC
Vent 3 kt del Sud
Temperatura 34°C
Humitat 53%
Pressió 1012 hPa
Visibilitat 10 km o més
Escasses núvols a una alçada de 4000 ft
Núvols disperses a una alçada de 20000 ft

METAR: SLCO 042000Z 18003KT 9999 FEW040 SCT200 34/23 Q1012

Hora: 06:32 (10:32 UTC)

Pronòstic

L'informe es va fer fa 6 hores i 32 minuts, a les 04:00 UTC
Pronòstic vàlid del 05 a les 06 UTC al 06 a les 06 UTC
Vent kt del Nord
Visibilitat 10 km o més
Probabilitat 40% :
Temporalment
l' 05 a les 07 UTC al 05 a les 10 UTC
Visibilitat: 3000 m
Núvols disperses a una alçada de 300 ft
boirina
Evolucionant progressivament
l' 05 a les 12 UTC al 05 a les 14 UTC
Vent 9 kt del Nord/Nord-Oest
Núvols disperses a una alçada de 2300 ft

TAF: SLCO 050400Z 0506/0606 00000KT 9999 NSC TX35/0519Z TN19/0511Z PROB40 TEMPO 0507/0510 3000 BR SCT003 BECMG 0512/0514 34009KT SCT023

Observacions i pronòstics meteorològics de més de 4000 aeroports (METAR i TAF).

Les estacions disponibles són els punts grocs i vermells al mapa.

Posi el ratolí al punt desitjat per veure el nom de l'estació.

Feu clic per veure les observacions i els pronòstics meteorològics.

Per canviar el mapa: feu clic els botons verds amb una creu de color negre per apropar; al botó verd amb un guió per allunyar la imatge; o en les fletxes verdes per a mapes adjacents.


METAR-TAF: